sensor_id;sensor_type;location;lat;lon;timestamp;pressure;altitude;pressure_sealevel;temperature;humidity
6218;BME280;3142;48.206;11.550;2023-02-28T00:01:06;96233.78;;;-0.38;64.11
6218;BME280;3142;48.206;11.550;2023-02-28T00:03:33;96226.28;;;-0.41;63.79
6218;BME280;3142;48.206;11.550;2023-02-28T00:06:00;96222.22;;;-0.44;63.73
6218;BME280;3142;48.206;11.550;2023-02-28T00:08:28;96222.44;;;-0.47;63.58
6218;BME280;3142;48.206;11.550;2023-02-28T00:10:55;96221.41;;;-0.55;63.89
6218;BME280;3142;48.206;11.550;2023-02-28T00:13:21;96218.25;;;-0.59;63.64
6218;BME280;3142;48.206;11.550;2023-02-28T00:15:58;96222.59;;;-0.60;64.08
6218;BME280;3142;48.206;11.550;2023-02-28T00:18:24;96229.34;;;-0.58;64.40
6218;BME280;3142;48.206;11.550;2023-02-28T00:20:51;96224.13;;;-0.68;64.22
6218;BME280;3142;48.206;11.550;2023-02-28T00:23:17;96221.31;;;-0.65;64.35
6218;BME280;3142;48.206;11.550;2023-02-28T00:25:45;96218.94;;;-0.57;64.02
6218;BME280;3142;48.206;11.550;2023-02-28T00:28:11;96213.38;;;-0.62;64.15
6218;BME280;3142;48.206;11.550;2023-02-28T00:30:38;96219.31;;;-0.73;64.15
6218;BME280;3142;48.206;11.550;2023-02-28T00:33:04;96213.97;;;-0.81;64.13
6218;BME280;3142;48.206;11.550;2023-02-28T00:35:31;96214.41;;;-0.87;64.98
6218;BME280;3142;48.206;11.550;2023-02-28T00:37:57;96216.88;;;-0.85;64.57
6218;BME280;3142;48.206;11.550;2023-02-28T00:40:24;96220.38;;;-0.86;64.64
6218;BME280;3142;48.206;11.550;2023-02-28T00:42:51;96214.06;;;-0.82;65.09
6218;BME280;3142;48.206;11.550;2023-02-28T00:45:18;96207.41;;;-0.85;65.31
6218;BME280;3142;48.206;11.550;2023-02-28T00:47:45;96209.06;;;-0.73;64.89
6218;BME280;3142;48.206;11.550;2023-02-28T00:50:15;96210.22;;;-0.77;64.81
6218;BME280;3142;48.206;11.550;2023-02-28T00:52:41;96209.03;;;-0.84;65.31
6218;BME280;3142;48.206;11.550;2023-02-28T00:55:08;96214.66;;;-0.90;64.85
6218;BME280;3142;48.206;11.550;2023-02-28T00:57:35;96213.38;;;-0.96;65.46
6218;BME280;3142;48.206;11.550;2023-02-28T01:00:04;96214.91;;;-0.93;65.85
6218;BME280;3142;48.206;11.550;2023-02-28T01:02:30;96214.09;;;-0.94;65.43
6218;BME280;3142;48.206;11.550;2023-02-28T01:04:57;96209.97;;;-0.96;65.53
6218;BME280;3142;48.206;11.550;2023-02-28T01:07:23;96215.00;;;-1.06;65.58
6218;BME280;3142;48.206;11.550;2023-02-28T01:09:50;96210.31;;;-1.12;66.12
6218;BME280;3142;48.206;11.550;2023-02-28T01:12:16;96215.81;;;-1.16;66.63
6218;BME280;3142;48.206;11.550;2023-02-28T01:14:43;96209.63;;;-1.14;66.58
6218;BME280;3142;48.206;11.550;2023-02-28T01:17:10;96205.66;;;-1.18;66.58
6218;BME280;3142;48.206;11.550;2023-02-28T01:19:37;96205.66;;;-1.18;66.43
6218;BME280;3142;48.206;11.550;2023-02-28T01:22:04;96208.34;;;-1.20;66.96
6218;BME280;3142;48.206;11.550;2023-02-28T01:24:31;96200.53;;;-1.18;66.97
6218;BME280;3142;48.206;11.550;2023-02-28T01:26:57;96193.66;;;-1.17;67.36
6218;BME280;3142;48.206;11.550;2023-02-28T01:29:24;96197.03;;;-1.17;66.04
6218;BME280;3142;48.206;11.550;2023-02-28T01:31:50;96194.81;;;-1.22;66.54
6218;BME280;3142;48.206;11.550;2023-02-28T01:34:18;96191.53;;;-1.24;66.81
6218;BME280;3142;48.206;11.550;2023-02-28T01:36:45;96193.88;;;-1.32;67.26
6218;BME280;3142;48.206;11.550;2023-02-28T01:39:11;96194.91;;;-1.34;67.38
6218;BME280;3142;48.206;11.550;2023-02-28T01:41:39;96194.09;;;-1.35;66.95
6218;BME280;3142;48.206;11.550;2023-02-28T01:44:53;96182.09;;;-1.34;67.36
6218;BME280;3142;48.206;11.550;2023-02-28T01:46:55;96187.91;;;-1.32;67.49
6218;BME280;3142;48.206;11.550;2023-02-28T01:49:21;96187.91;;;-1.32;67.35
6218;BME280;3142;48.206;11.550;2023-02-28T01:51:50;96195.50;;;-1.20;67.28
6218;BME280;3142;48.206;11.550;2023-02-28T01:54:22;96190.03;;;-1.15;67.33
6218;BME280;3142;48.206;11.550;2023-02-28T01:56:53;96187.91;;;-1.10;66.48
6218;BME280;3142;48.206;11.550;2023-02-28T01:59:25;96190.16;;;-1.05;66.83
6218;BME280;3142;48.206;11.550;2023-02-28T02:01:54;96179.88;;;-1.05;66.48
6218;BME280;3142;48.206;11.550;2023-02-28T02:04:23;96185.34;;;-1.10;66.88
6218;BME280;3142;48.206;11.550;2023-02-28T02:06:51;96183.47;;;-0.97;65.96
6218;BME280;3142;48.206;11.550;2023-02-28T02:09:18;96186.66;;;-1.04;66.02
6218;BME280;3142;48.206;11.550;2023-02-28T02:11:45;96178.38;;;-1.08;66.79
6218;BME280;3142;48.206;11.550;2023-02-28T02:14:31;96172.53;;;-1.21;66.99
6218;BME280;3142;48.206;11.550;2023-02-28T02:17:16;96183.81;;;-1.24;67.39
6218;BME280;3142;48.206;11.550;2023-02-28T02:20:32;96178.59;;;-1.22;67.07
6218;BME280;3142;48.206;11.550;2023-02-28T02:23:25;96185.59;;;-1.13;67.21
6218;BME280;3142;48.206;11.550;2023-02-28T02:26:04;96180.34;;;-1.11;66.63
6218;BME280;3142;48.206;11.550;2023-02-28T02:28:51;96172.88;;;-1.03;66.56
6218;BME280;3142;48.206;11.550;2023-02-28T02:31:33;96175.22;;;-1.00;66.81
6218;BME280;3142;48.206;11.550;2023-02-28T02:34:39;96172.88;;;-1.03;66.55
6218;BME280;3142;48.206;11.550;2023-02-28T02:37:25;96175.19;;;-1.11;66.99
6218;BME280;3142;48.206;11.550;2023-02-28T02:40:02;96172.41;;;-1.20;67.30
6218;BME280;3142;48.206;11.550;2023-02-28T02:42:36;96168.34;;;-1.22;66.68
6218;BME280;3142;48.206;11.550;2023-02-28T02:45:09;96161.66;;;-1.25;67.06
6218;BME280;3142;48.206;11.550;2023-02-28T02:47:38;96165.06;;;-1.35;67.46
6218;BME280;3142;48.206;11.550;2023-02-28T02:50:11;96157.56;;;-1.38;67.29
6218;BME280;3142;48.206;11.550;2023-02-28T02:52:44;96161.75;;;-1.37;68.06
6218;BME280;3142;48.206;11.550;2023-02-28T02:55:14;96160.25;;;-1.40;68.10
6218;BME280;3142;48.206;11.550;2023-02-28T02:57:45;96151.97;;;-1.43;67.90
6218;BME280;3142;48.206;11.550;2023-02-28T03:00:15;96160.97;;;-1.49;68.26
6218;BME280;3142;48.206;11.550;2023-02-28T03:02:43;96160.34;;;-1.53;68.48
6218;BME280;3142;48.206;11.550;2023-02-28T03:05:18;96163.97;;;-1.55;68.32
6218;BME280;3142;48.206;11.550;2023-02-28T03:07:45;96159.53;;;-1.53;69.04
6218;BME280;3142;48.206;11.550;2023-02-28T03:10:35;96159.53;;;-1.53;69.03
6218;BME280;3142;48.206;11.550;2023-02-28T03:13:34;96162.31;;;-1.56;68.45
6218;BME280;3142;48.206;11.550;2023-02-28T03:16:15;96161.75;;;-1.60;68.86
6218;BME280;3142;48.206;11.550;2023-02-28T03:18:52;96155.81;;;-1.60;68.60
6218;BME280;3142;48.206;11.550;2023-02-28T03:21:26;96157.19;;;-1.56;68.68
6218;BME280;3142;48.206;11.550;2023-02-28T03:23:59;96162.94;;;-1.41;68.55
6218;BME280;3142;48.206;11.550;2023-02-28T03:26:31;96166.31;;;-1.41;68.53
6218;BME280;3142;48.206;11.550;2023-02-28T03:29:03;96162.00;;;-1.40;68.95
6218;BME280;3142;48.206;11.550;2023-02-28T03:31:34;96175.41;;;-1.48;68.98
6218;BME280;3142;48.206;11.550;2023-02-28T03:34:06;96171.41;;;-1.52;68.93
6218;BME280;3142;48.206;11.550;2023-02-28T03:36:38;96170.41;;;-1.50;69.42
6218;BME280;3142;48.206;11.550;2023-02-28T03:39:11;96164.34;;;-1.48;70.18
6218;BME280;3142;48.206;11.550;2023-02-28T03:41:42;96173.66;;;-1.47;69.56
6218;BME280;3142;48.206;11.550;2023-02-28T03:44:15;96172.16;;;-1.50;69.75
6218;BME280;3142;48.206;11.550;2023-02-28T03:46:46;96167.22;;;-1.53;70.27
6218;BME280;3142;48.206;11.550;2023-02-28T03:49:17;96170.59;;;-1.53;69.79
6218;BME280;3142;48.206;11.550;2023-02-28T03:51:47;96175.06;;;-1.43;70.62
6218;BME280;3142;48.206;11.550;2023-02-28T03:54:17;96164.69;;;-1.42;69.52
6218;BME280;3142;48.206;11.550;2023-02-28T03:56:48;96167.81;;;-1.38;70.41
6218;BME280;3142;48.206;11.550;2023-02-28T03:59:21;96173.19;;;-1.41;70.34
6218;BME280;3142;48.206;11.550;2023-02-28T04:01:49;96173.34;;;-1.32;69.66
6218;BME280;3142;48.206;11.550;2023-02-28T04:04:17;96177.53;;;-1.31;70.72
6218;BME280;3142;48.206;11.550;2023-02-28T04:06:45;96180.78;;;-1.29;69.86
6218;BME280;3142;48.206;11.550;2023-02-28T04:09:14;96184.88;;;-1.26;70.26
6218;BME280;3142;48.206;11.550;2023-02-28T04:11:42;96181.03;;;-1.32;70.02
6218;BME280;3142;48.206;11.550;2023-02-28T04:14:11;96183.25;;;-1.27;69.89
6218;BME280;3142;48.206;11.550;2023-02-28T04:16:39;96184.28;;;-1.30;70.21
6218;BME280;3142;48.206;11.550;2023-02-28T04:19:08;96194.09;;;-1.24;70.46
6218;BME280;3142;48.206;11.550;2023-02-28T04:21:37;96188.88;;;-1.22;70.43
6218;BME280;3142;48.206;11.550;2023-02-28T04:24:06;96188.75;;;-1.21;69.82
6218;BME280;3142;48.206;11.550;2023-02-28T04:26:34;96194.09;;;-1.24;70.64
6218;BME280;3142;48.206;11.550;2023-02-28T04:29:03;96199.81;;;-1.20;70.41
6218;BME280;3142;48.206;11.550;2023-02-28T04:31:29;96194.59;;;-1.07;70.49
6218;BME280;3142;48.206;11.550;2023-02-28T04:33:56;96199.38;;;-1.03;70.54
6218;BME280;3142;48.206;11.550;2023-02-28T04:36:23;96206.38;;;-0.94;70.17
6218;BME280;3142;48.206;11.550;2023-02-28T04:38:50;96206.25;;;-1.03;70.03
6218;BME280;3142;48.206;11.550;2023-02-28T04:41:18;96209.41;;;-1.00;70.86
6218;BME280;3142;48.206;11.550;2023-02-28T04:43:45;96202.53;;;-0.88;70.56
6218;BME280;3142;48.206;11.550;2023-02-28T04:46:11;96203.56;;;-0.91;70.09
6218;BME280;3142;48.206;11.550;2023-02-28T04:48:39;96201.00;;;-0.91;70.57
6218;BME280;3142;48.206;11.550;2023-02-28T04:51:11;96202.75;;;-0.91;70.36
6218;BME280;3142;48.206;11.550;2023-02-28T04:53:39;96197.13;;;-0.96;71.00
6218;BME280;3142;48.206;11.550;2023-02-28T04:56:07;96202.28;;;-0.96;70.80
6218;BME280;3142;48.206;11.550;2023-02-28T04:58:35;96199.84;;;-0.86;70.91
6218;BME280;3142;48.206;11.550;2023-02-28T05:01:04;96202.75;;;-0.91;70.81
6218;BME280;3142;48.206;11.550;2023-02-28T05:03:37;96196.94;;;-0.93;70.58
6218;BME280;3142;48.206;11.550;2023-02-28T05:06:05;96208.72;;;-0.91;70.64
6218;BME280;3142;48.206;11.550;2023-02-28T05:08:32;96219.19;;;-0.82;70.49
6218;BME280;3142;48.206;11.550;2023-02-28T05:10:59;96224.94;;;-0.90;70.54
6218;BME280;3142;48.206;11.550;2023-02-28T05:13:26;96215.47;;;-0.90;71.03
6218;BME280;3142;48.206;11.550;2023-02-28T05:15:54;96225.88;;;-0.91;70.84
6218;BME280;3142;48.206;11.550;2023-02-28T05:18:20;96222.13;;;-0.98;70.69
6218;BME280;3142;48.206;11.550;2023-02-28T05:20:47;96219.44;;;-0.97;70.90
6218;BME280;3142;48.206;11.550;2023-02-28T05:23:14;96224.22;;;-1.03;71.19
6218;BME280;3142;48.206;11.550;2023-02-28T05:25:41;96217.59;;;-0.95;71.01
6218;BME280;3142;48.206;11.550;2023-02-28T05:28:07;96229.00;;;-0.87;71.26
6218;BME280;3142;48.206;11.550;2023-02-28T05:30:34;96222.63;;;-0.82;70.77
6218;BME280;3142;48.206;11.550;2023-02-28T05:33:02;96232.16;;;-0.73;71.30
6218;BME280;3142;48.206;11.550;2023-02-28T05:35:28;96223.53;;;-0.72;71.07
6218;BME280;3142;48.206;11.550;2023-02-28T05:37:54;96227.03;;;-0.73;71.13
6218;BME280;3142;48.206;11.550;2023-02-28T05:40:21;96221.44;;;-0.67;70.39
6218;BME280;3142;48.206;11.550;2023-02-28T05:42:49;96219.56;;;-0.65;70.48
6218;BME280;3142;48.206;11.550;2023-02-28T05:45:16;96221.78;;;-0.71;70.71
6218;BME280;3142;48.206;11.550;2023-02-28T05:47:42;96221.06;;;-0.73;70.38
6218;BME280;3142;48.206;11.550;2023-02-28T05:50:11;96220.50;;;-0.77;70.06
6218;BME280;3142;48.206;11.550;2023-02-28T05:52:37;96227.63;;;-0.80;70.39
6218;BME280;3142;48.206;11.550;2023-02-28T05:55:04;96225.41;;;-0.74;70.01
6218;BME280;3142;48.206;11.550;2023-02-28T05:57:31;96231.94;;;-0.81;70.46
6218;BME280;3142;48.206;11.550;2023-02-28T05:59:57;96225.19;;;-0.82;70.75
6218;BME280;3142;48.206;11.550;2023-02-28T06:02:24;96229.84;;;-0.76;70.23
6218;BME280;3142;48.206;11.550;2023-02-28T06:04:50;96232.97;;;-0.83;69.63
6218;BME280;3142;48.206;11.550;2023-02-28T06:07:18;96234.16;;;-0.87;70.21
6218;BME280;3142;48.206;11.550;2023-02-28T06:09:44;96239.16;;;-0.86;70.72
6218;BME280;3142;48.206;11.550;2023-02-28T06:12:11;96244.53;;;-0.89;70.63
6218;BME280;3142;48.206;11.550;2023-02-28T06:14:37;96238.13;;;-0.95;70.66
6218;BME280;3142;48.206;11.550;2023-02-28T06:17:03;96238.13;;;-0.95;70.32
6218;BME280;3142;48.206;11.550;2023-02-28T06:19:30;96241.41;;;-0.93;70.49
6218;BME280;3142;48.206;11.550;2023-02-28T06:21:57;96253.06;;;-0.88;69.92
6218;BME280;3142;48.206;11.550;2023-02-28T06:24:26;96254.94;;;-0.91;70.50
6218;BME280;3142;48.206;11.550;2023-02-28T06:26:53;96261.81;;;-0.91;69.93
6218;BME280;3142;48.206;11.550;2023-02-28T06:29:20;96262.75;;;-0.92;70.38
6218;BME280;3142;48.206;11.550;2023-02-28T06:31:47;96262.88;;;-0.94;69.96
6218;BME280;3142;48.206;11.550;2023-02-28T06:34:13;96265.91;;;-0.88;69.58
6218;BME280;3142;48.206;11.550;2023-02-28T06:36:41;96265.66;;;-0.85;69.87
6218;BME280;3142;48.206;11.550;2023-02-28T06:39:08;96263.88;;;-0.96;70.27
6218;BME280;3142;48.206;11.550;2023-02-28T06:41:36;96269.28;;;-0.88;69.92
6218;BME280;3142;48.206;11.550;2023-02-28T06:44:05;96265.44;;;-0.94;69.99
6218;BME280;3142;48.206;11.550;2023-02-28T06:46:32;96261.81;;;-0.91;69.82
6218;BME280;3142;48.206;11.550;2023-02-28T06:48:58;96271.41;;;-0.82;69.51
6218;BME280;3142;48.206;11.550;2023-02-28T06:51:25;96273.38;;;-0.85;69.47
6218;BME280;3142;48.206;11.550;2023-02-28T06:53:52;96271.38;;;-0.93;70.52
6218;BME280;3142;48.206;11.550;2023-02-28T06:56:19;96280.50;;;-0.89;70.57
6218;BME280;3142;48.206;11.550;2023-02-28T06:58:48;96281.66;;;-0.93;69.85
6218;BME280;3142;48.206;11.550;2023-02-28T07:01:15;96286.81;;;-0.82;69.54
6218;BME280;3142;48.206;11.550;2023-02-28T07:03:42;96294.59;;;-0.83;69.83
6218;BME280;3142;48.206;11.550;2023-02-28T07:06:08;96291.56;;;-0.88;69.41
6218;BME280;3142;48.206;11.550;2023-02-28T07:08:35;96294.97;;;-0.88;69.38
6218;BME280;3142;48.206;11.550;2023-02-28T07:11:02;96293.31;;;-0.89;70.15
6218;BME280;3142;48.206;11.550;2023-02-28T07:13:29;96295.22;;;-0.80;69.50
6218;BME280;3142;48.206;11.550;2023-02-28T07:15:59;96290.69;;;-0.65;69.53
6218;BME280;3142;48.206;11.550;2023-02-28T07:18:26;96293.13;;;-0.52;68.96
6218;BME280;3142;48.206;11.550;2023-02-28T07:20:52;96291.25;;;-0.62;68.68
6218;BME280;3142;48.206;11.550;2023-02-28T07:23:20;96293.09;;;-0.75;68.97
6218;BME280;3142;48.206;11.550;2023-02-28T07:25:46;96289.38;;;-0.82;69.53
6218;BME280;3142;48.206;11.550;2023-02-28T07:28:13;96289.72;;;-0.86;69.11
6218;BME280;3142;48.206;11.550;2023-02-28T07:30:40;96289.13;;;-0.90;69.83
6218;BME280;3142;48.206;11.550;2023-02-28T07:33:08;96290.50;;;-0.97;69.38
6218;BME280;3142;48.206;11.550;2023-02-28T07:35:34;96294.63;;;-0.95;69.96
6218;BME280;3142;48.206;11.550;2023-02-28T07:38:01;96302.06;;;-1.03;69.66
6218;BME280;3142;48.206;11.550;2023-02-28T07:42:53;96302.53;;;-0.98;70.34
6218;BME280;3142;48.206;11.550;2023-02-28T07:45:19;96306.53;;;-0.94;70.35
6218;BME280;3142;48.206;11.550;2023-02-28T07:47:46;96299.97;;;-0.86;69.91
6218;BME280;3142;48.206;11.550;2023-02-28T07:50:15;96305.22;;;-0.88;69.92
6218;BME280;3142;48.206;11.550;2023-02-28T07:52:41;96302.66;;;-0.88;69.46
6218;BME280;3142;48.206;11.550;2023-02-28T07:55:09;96298.19;;;-0.97;70.09
6218;BME280;3142;48.206;11.550;2023-02-28T07:57:36;96289.94;;;-0.90;69.76
6218;BME280;3142;48.206;11.550;2023-02-28T08:00:04;96293.47;;;-0.79;69.60
6218;BME280;3142;48.206;11.550;2023-02-28T08:02:30;96293.59;;;-0.81;69.61
6218;BME280;3142;48.206;11.550;2023-02-28T08:04:57;96295.34;;;-0.81;69.65
6218;BME280;3142;48.206;11.550;2023-02-28T08:07:25;96298.81;;;-0.82;69.21
6218;BME280;3142;48.206;11.550;2023-02-28T08:09:51;96300.78;;;-0.86;69.70
6218;BME280;3142;48.206;11.550;2023-02-28T08:12:17;96299.75;;;-0.83;69.61
6218;BME280;3142;48.206;11.550;2023-02-28T08:14:44;96307.47;;;-0.72;69.60
6218;BME280;3142;48.206;11.550;2023-02-28T08:17:11;96309.47;;;-0.65;68.96
6218;BME280;3142;48.206;11.550;2023-02-28T08:19:37;96310.63;;;-0.69;69.25
6218;BME280;3142;48.206;11.550;2023-02-28T08:22:05;96312.47;;;-0.71;69.14
6218;BME280;3142;48.206;11.550;2023-02-28T08:24:33;96315.75;;;-0.69;69.20
6218;BME280;3142;48.206;11.550;2023-02-28T08:26:59;96316.59;;;-0.68;69.32
6218;BME280;3142;48.206;11.550;2023-02-28T08:29:25;96325.34;;;-0.60;69.03
6218;BME280;3142;48.206;11.550;2023-02-28T08:31:52;96315.06;;;-0.60;69.87
6218;BME280;3142;48.206;11.550;2023-02-28T08:34:18;96323.03;;;-0.51;69.46
6218;BME280;3142;48.206;11.550;2023-02-28T08:36:45;96313.56;;;-0.40;69.78
6218;BME280;3142;48.206;11.550;2023-02-28T08:39:12;96326.19;;;-0.25;69.24
6218;BME280;3142;48.206;11.550;2023-02-28T08:41:41;96329.34;;;-0.22;69.00
6218;BME280;3142;48.206;11.550;2023-02-28T08:44:08;96322.44;;;-0.33;68.15
6218;BME280;3142;48.206;11.550;2023-02-28T08:46:34;96327.69;;;-0.34;67.68
6218;BME280;3142;48.206;11.550;2023-02-28T08:49:00;96337.41;;;-0.38;68.36
6218;BME280;3142;48.206;11.550;2023-02-28T08:51:28;96334.84;;;-0.38;68.51
6218;BME280;3142;48.206;11.550;2023-02-28T08:53:55;96336.91;;;-0.32;68.29
6218;BME280;3142;48.206;11.550;2023-02-28T08:56:22;96338.81;;;-0.22;68.25
6218;BME280;3142;48.206;11.550;2023-02-28T08:58:50;96338.09;;;-0.36;68.10
6218;BME280;3142;48.206;11.550;2023-02-28T09:01:18;96335.97;;;-0.31;68.16
6218;BME280;3142;48.206;11.550;2023-02-28T09:03:46;96338.19;;;-0.15;68.52
6218;BME280;3142;48.206;11.550;2023-02-28T09:06:13;96343.56;;;-0.07;68.08
6218;BME280;3142;48.206;11.550;2023-02-28T09:08:41;96335.88;;;-0.18;67.43
6218;BME280;3142;48.206;11.550;2023-02-28T09:11:08;96342.75;;;-0.18;67.19
6218;BME280;3142;48.206;11.550;2023-02-28T09:13:34;96349.53;;;-0.28;66.77
6218;BME280;3142;48.206;11.550;2023-02-28T09:16:05;96344.50;;;-0.30;67.24
6218;BME280;3142;48.206;11.550;2023-02-28T09:18:33;96343.56;;;-0.29;67.49
6218;BME280;3142;48.206;11.550;2023-02-28T09:21:02;96344.88;;;-0.23;67.85
6218;BME280;3142;48.206;11.550;2023-02-28T09:23:28;96344.19;;;-0.25;67.38
6218;BME280;3142;48.206;11.550;2023-02-28T09:25:55;96354.09;;;-0.32;67.59
6218;BME280;3142;48.206;11.550;2023-02-28T09:28:22;96366.94;;;-0.32;67.19
6218;BME280;3142;48.206;11.550;2023-02-28T09:30:49;96363.69;;;-0.34;67.66
6218;BME280;3142;48.206;11.550;2023-02-28T09:33:18;96357.84;;;-0.36;67.81
6218;BME280;3142;48.206;11.550;2023-02-28T09:35:45;96364.88;;;-0.27;67.79
6218;BME280;3142;48.206;11.550;2023-02-28T09:38:12;96370.69;;;-0.14;66.42
6218;BME280;3142;48.206;11.550;2023-02-28T09:40:46;96371.53;;;-0.13;67.01
6218;BME280;3142;48.206;11.550;2023-02-28T09:43:14;96376.44;;;-0.10;67.16
6218;BME280;3142;48.206;11.550;2023-02-28T09:45:46;96372.44;;;0.08;66.98
6218;BME280;3142;48.206;11.550;2023-02-28T09:48:16;96382.47;;;0.22;65.98
6218;BME280;3142;48.206;11.550;2023-02-28T09:50:47;96374.34;;;0.49;65.63
6218;BME280;3142;48.206;11.550;2023-02-28T09:53:19;96373.53;;;1.13;64.84
6218;BME280;3142;48.206;11.550;2023-02-28T09:55:50;96377.88;;;1.85;61.84
6218;BME280;3142;48.206;11.550;2023-02-28T09:58:20;96381.53;;;1.52;60.66
6218;BME280;3142;48.206;11.550;2023-02-28T10:00:56;96376.78;;;1.36;61.61
6218;BME280;3142;48.206;11.550;2023-02-28T10:03:30;96377.81;;;1.44;62.25
6218;BME280;3142;48.206;11.550;2023-02-28T10:06:05;96381.28;;;1.55;62.45
6218;BME280;3142;48.206;11.550;2023-02-28T10:08:37;96375.47;;;1.62;62.45
6218;BME280;3142;48.206;11.550;2023-02-28T10:11:10;96372.34;;;1.38;61.81
6218;BME280;3142;48.206;11.550;2023-02-28T10:13:46;96370.94;;;1.34;62.46
6218;BME280;3142;48.206;11.550;2023-02-28T10:16:20;96374.59;;;1.52;61.92
6218;BME280;3142;48.206;11.550;2023-02-28T10:18:51;96375.41;;;2.14;60.10
6218;BME280;3142;48.206;11.550;2023-02-28T10:21:24;96378.19;;;2.31;59.88
6218;BME280;3142;48.206;11.550;2023-02-28T10:23:59;96381.78;;;2.59;59.18
6218;BME280;3142;48.206;11.550;2023-02-28T10:26:28;96378.13;;;2.62;59.24
6218;BME280;3142;48.206;11.550;2023-02-28T10:28:56;96381.13;;;2.86;59.04
6218;BME280;3142;48.206;11.550;2023-02-28T10:31:22;96377.59;;;2.87;59.30
6218;BME280;3142;48.206;11.550;2023-02-28T10:33:49;96364.59;;;3.55;58.16
6218;BME280;3142;48.206;11.550;2023-02-28T10:36:17;96366.44;;;4.19;56.07
6218;BME280;3142;48.206;11.550;2023-02-28T10:38:46;96375.28;;;5.07;54.69
6218;BME280;3142;48.206;11.550;2023-02-28T10:41:15;96371.41;;;5.73;53.23
6218;BME280;3142;48.206;11.550;2023-02-28T10:43:43;96378.41;;;5.28;52.29
6218;BME280;3142;48.206;11.550;2023-02-28T10:46:13;96380.53;;;4.80;50.63
6218;BME280;3142;48.206;11.550;2023-02-28T10:48:41;96392.16;;;4.30;52.55
6218;BME280;3142;48.206;11.550;2023-02-28T10:51:10;96392.34;;;4.19;53.16
6218;BME280;3142;48.206;11.550;2023-02-28T10:53:48;96383.94;;;4.35;52.89
6218;BME280;3142;48.206;11.550;2023-02-28T10:56:17;96378.91;;;4.79;52.48
6218;BME280;3142;48.206;11.550;2023-02-28T10:58:49;96377.22;;;4.87;52.53
6218;BME280;3142;48.206;11.550;2023-02-28T11:01:18;96389.97;;;5.16;51.92
6218;BME280;3142;48.206;11.550;2023-02-28T11:03:45;96383.88;;;5.25;51.23
6218;BME280;3142;48.206;11.550;2023-02-28T11:06:17;96383.50;;;5.20;50.22
6218;BME280;3142;48.206;11.550;2023-02-28T11:08:51;96385.97;;;4.86;51.52
6218;BME280;3142;48.206;11.550;2023-02-28T11:11:20;96391.50;;;4.73;51.75
6218;BME280;3142;48.206;11.550;2023-02-28T11:13:51;96381.44;;;4.88;50.99
6218;BME280;3142;48.206;11.550;2023-02-28T11:16:18;96390.38;;;4.76;51.15
6218;BME280;3142;48.206;11.550;2023-02-28T11:18:48;96394.91;;;4.74;51.80
6218;BME280;3142;48.206;11.550;2023-02-28T11:21:19;96389.59;;;4.21;51.94
6218;BME280;3142;48.206;11.550;2023-02-28T11:23:51;96381.75;;;5.03;51.84
6218;BME280;3142;48.206;11.550;2023-02-28T11:26:36;96385.03;;;5.92;50.78
6218;BME280;3142;48.206;11.550;2023-02-28T11:29:10;96383.63;;;6.32;48.77
6218;BME280;3142;48.206;11.550;2023-02-28T11:31:37;96370.75;;;6.22;48.07
6218;BME280;3142;48.206;11.550;2023-02-28T11:34:23;96374.09;;;6.49;48.26
6218;BME280;3142;48.206;11.550;2023-02-28T11:36:52;96374.84;;;6.92;48.31
6218;BME280;3142;48.206;11.550;2023-02-28T11:39:20;96364.91;;;6.79;46.99
6218;BME280;3142;48.206;11.550;2023-02-28T11:41:58;96365.88;;;6.78;47.22
6218;BME280;3142;48.206;11.550;2023-02-28T11:44:38;96366.97;;;6.59;46.64
6218;BME280;3142;48.206;11.550;2023-02-28T11:47:13;96357.84;;;6.47;46.79
6218;BME280;3142;48.206;11.550;2023-02-28T11:49:49;96348.47;;;6.70;47.63
6218;BME280;3142;48.206;11.550;2023-02-28T11:52:24;96352.09;;;7.02;47.44
6218;BME280;3142;48.206;11.550;2023-02-28T11:55:11;96348.50;;;6.78;46.56
6218;BME280;3142;48.206;11.550;2023-02-28T11:57:52;96363.31;;;6.36;46.60
6218;BME280;3142;48.206;11.550;2023-02-28T12:00:39;96348.81;;;6.17;48.19
6218;BME280;3142;48.206;11.550;2023-02-28T12:03:16;96349.06;;;6.48;47.68
6218;BME280;3142;48.206;11.550;2023-02-28T12:05:54;96353.09;;;6.42;47.47
6218;BME280;3142;48.206;11.550;2023-02-28T12:08:35;96355.53;;;6.44;46.78
6218;BME280;3142;48.206;11.550;2023-02-28T12:11:19;96351.31;;;6.35;47.56
6218;BME280;3142;48.206;11.550;2023-02-28T12:13:58;96354.94;;;6.50;47.61
6218;BME280;3142;48.206;11.550;2023-02-28T12:16:36;96350.56;;;6.59;47.51
6218;BME280;3142;48.206;11.550;2023-02-28T12:19:16;96343.28;;;6.20;47.74
6218;BME280;3142;48.206;11.550;2023-02-28T12:21:53;96345.81;;;5.78;48.42
6218;BME280;3142;48.206;11.550;2023-02-28T12:24:43;96340.16;;;5.56;48.93
6218;BME280;3142;48.206;11.550;2023-02-28T12:27:16;96341.94;;;5.56;49.83
6218;BME280;3142;48.206;11.550;2023-02-28T12:29:48;96340.94;;;5.49;49.90
6218;BME280;3142;48.206;11.550;2023-02-28T12:32:18;96343.13;;;5.35;50.48
6218;BME280;3142;48.206;11.550;2023-02-28T12:34:49;96338.59;;;5.38;49.70
6218;BME280;3142;48.206;11.550;2023-02-28T12:37:20;96341.66;;;5.15;50.25
6218;BME280;3142;48.206;11.550;2023-02-28T12:39:51;96328.56;;;5.43;50.73
6218;BME280;3142;48.206;11.550;2023-02-28T12:42:26;96327.84;;;5.84;50.71
6218;BME280;3142;48.206;11.550;2023-02-28T12:44:56;96328.03;;;6.17;49.70
6218;BME280;3142;48.206;11.550;2023-02-28T12:47:24;96321.69;;;6.19;49.76
6218;BME280;3142;48.206;11.550;2023-02-28T12:49:54;96318.00;;;6.38;49.67
6218;BME280;3142;48.206;11.550;2023-02-28T12:52:28;96317.97;;;6.30;48.18
6218;BME280;3142;48.206;11.550;2023-02-28T12:55:00;96314.88;;;6.27;48.84
6218;BME280;3142;48.206;11.550;2023-02-28T12:57:36;96301.81;;;6.44;48.42
6218;BME280;3142;48.206;11.550;2023-02-28T13:00:10;96307.84;;;6.61;48.54
6218;BME280;3142;48.206;11.550;2023-02-28T13:03:01;96307.13;;;6.43;48.36
6218;BME280;3142;48.206;11.550;2023-02-28T13:05:49;96302.09;;;6.41;48.21
6218;BME280;3142;48.206;11.550;2023-02-28T13:11:26;96298.31;;;6.19;48.69
6218;BME280;3142;48.206;11.550;2023-02-28T13:14:01;96303.06;;;6.40;48.95
6218;BME280;3142;48.206;11.550;2023-02-28T13:16:29;96303.56;;;6.36;48.41
6218;BME280;3142;48.206;11.550;2023-02-28T13:19:17;96310.94;;;6.14;48.18
6218;BME280;3142;48.206;11.550;2023-02-28T13:21:46;96300.56;;;6.14;48.34
6218;BME280;3142;48.206;11.550;2023-02-28T13:24:38;96301.94;;;6.35;49.28
6218;BME280;3142;48.206;11.550;2023-02-28T13:27:35;96304.59;;;6.09;49.09
6218;BME280;3142;48.206;11.550;2023-02-28T13:33:24;96313.53;;;5.80;49.03
6218;BME280;3142;48.206;11.550;2023-02-28T13:36:07;96308.69;;;5.85;48.90
6218;BME280;3142;48.206;11.550;2023-02-28T13:38:36;96310.06;;;5.98;49.06
6218;BME280;3142;48.206;11.550;2023-02-28T13:41:43;96325.88;;;6.12;49.75